Time;durP1;ratioP1;P1;durP2;ratioP2;P2;SDS_P1;SDS_P2;PMS_P1;PMS_P2;Temp;Humidity;BMP_temperature;BMP_pressure;BME280_temperature;BME280_humidity;BME280_pressure;Samples;Min_cycle;Max_cycle;Signal;HPM_P1;HPM_P2
2020/07/08 00:00:04;;;;;;;6.9;2;;;;;;;;;;;;;
2020/07/08 00:02:33;;;;;;;6;2;;;;;;;;;;;;;
2020/07/08 00:04:58;;;;;;;5.5;1.8;;;;;;;;;;;;;
2020/07/08 00:07:23;;;;;;;6.1;2;;;;;;;;;;;;;
2020/07/08 00:09:48;;;;;;;6.4;2;;;;;;;;;;;;;
2020/07/08 00:12:15;;;;;;;5.4;2.1;;;;;;;;;;;;;
2020/07/08 00:14:40;;;;;;;5.8;2.3;;;;;;;;;;;;;
2020/07/08 00:17:05;;;;;;;5.7;2.1;;;;;;;;;;;;;
2020/07/08 00:19:30;;;;;;;5.7;2;;;;;;;;;;;;;
2020/07/08 00:21:55;;;;;;;6.3;2;;;;;;;;;;;;;
2020/07/08 00:24:20;;;;;;;5.6;2;;;;;;;;;;;;;
2020/07/08 00:26:45;;;;;;;6.9;2;;;;;;;;;;;;;
2020/07/08 00:29:12;;;;;;;7;2.1;;;;;;;;;;;;;
2020/07/08 00:31:37;;;;;;;5.7;2.3;;;;;;;;;;;;;
2020/07/08 00:34:03;;;;;;;5.4;2.1;;;;;;;;;;;;;
2020/07/08 00:36:28;;;;;;;5.7;2;;;;;;;;;;;;;
2020/07/08 00:38:54;;;;;;;6.1;2.1;;;;;;;;;;;;;
2020/07/08 00:41:19;;;;;;;5.9;2;;;;;;;;;;;;;
2020/07/08 00:43:46;;;;;;;6.2;1.9;;;;;;;;;;;;;
2020/07/08 00:46:11;;;;;;;12.5;2.4;;;;;;;;;;;;;
2020/07/08 00:48:37;;;;;;;4.9;2.1;;;;;;;;;;;;;
2020/07/08 00:51:02;;;;;;;5.5;2;;;;;;;;;;;;;
2020/07/08 00:53:28;;;;;;;6.6;2.2;;;;;;;;;;;;;
2020/07/08 00:55:53;;;;;;;6;2.2;;;;;;;;;;;;;
2020/07/08 00:58:20;;;;;;;9;2.3;;;;;;;;;;;;;
2020/07/08 01:00:45;;;;;;;6.3;2.2;;;;;;;;;;;;;
2020/07/08 01:03:10;;;;;;;10.3;2.7;;;;;;;;;;;;;
2020/07/08 01:05:35;;;;;;;6.5;2.4;;;;;;;;;;;;;
2020/07/08 01:08:00;;;;;;;5.7;2.1;;;;;;;;;;;;;
2020/07/08 01:10:26;;;;;;;6;1.9;;;;;;;;;;;;;
2020/07/08 01:12:51;;;;;;;8;2.2;;;;;;;;;;;;;
2020/07/08 01:15:20;;;;;;;4.4;2;;;;;;;;;;;;;
2020/07/08 01:17:45;;;;;;;6.6;2.3;;;;;;;;;;;;;
2020/07/08 01:20:13;;;;;;;6.3;2.2;;;;;;;;;;;;;
2020/07/08 01:22:38;;;;;;;5.3;1.8;;;;;;;;;;;;;
2020/07/08 01:25:03;;;;;;;6.1;2.4;;;;;;;;;;;;;
2020/07/08 01:27:28;;;;;;;6.6;2.2;;;;;;;;;;;;;
2020/07/08 01:29:53;;;;;;;6.6;2.2;;;;;;;;;;;;;
2020/07/08 01:32:18;;;;;;;6.2;2.1;;;;;;;;;;;;;
2020/07/08 01:34:45;;;;;;;6.7;2.4;;;;;;;;;;;;;
2020/07/08 01:37:10;;;;;;;6.5;2.2;;;;;;;;;;;;;
2020/07/08 01:39:36;;;;;;;7.8;2.2;;;;;;;;;;;;;
2020/07/08 01:42:01;;;;;;;6.3;2.4;;;;;;;;;;;;;
2020/07/08 01:44:27;;;;;;;6.7;2.2;;;;;;;;;;;;;
2020/07/08 01:46:52;;;;;;;7.8;2.5;;;;;;;;;;;;;
2020/07/08 01:49:17;;;;;;;5.9;2.3;;;;;;;;;;;;;
2020/07/08 01:51:42;;;;;;;6.7;2.2;;;;;;;;;;;;;
2020/07/08 01:54:07;;;;;;;7.1;2.3;;;;;;;;;;;;;
2020/07/08 01:56:35;;;;;;;6.5;2.2;;;;;;;;;;;;;
2020/07/08 01:58:58;;;;;;;7.5;2.1;;;;;;;;;;;;;
2020/07/08 02:01:24;;;;;;;6.2;2.4;;;;;;;;;;;;;
2020/07/08 02:03:49;;;;;;;6.4;2.1;;;;;;;;;;;;;
2020/07/08 02:06:13;;;;;;;5.8;2.1;;;;;;;;;;;;;
2020/07/08 02:08:39;;;;;;;8.8;2.5;;;;;;;;;;;;;
2020/07/08 02:11:04;;;;;;;6.8;2.4;;;;;;;;;;;;;
2020/07/08 02:13:31;;;;;;;6.6;2.3;;;;;;;;;;;;;
2020/07/08 02:15:55;;;;;;;6.5;2.2;;;;;;;;;;;;;
2020/07/08 02:18:21;;;;;;;6.2;2.1;;;;;;;;;;;;;
2020/07/08 02:20:46;;;;;;;7.3;2.1;;;;;;;;;;;;;
2020/07/08 02:23:12;;;;;;;5.1;2.2;;;;;;;;;;;;;
2020/07/08 02:25:37;;;;;;;5.8;2.3;;;;;;;;;;;;;
2020/07/08 02:28:03;;;;;;;6;2.1;;;;;;;;;;;;;
2020/07/08 02:30:28;;;;;;;6.2;2.1;;;;;;;;;;;;;
2020/07/08 02:32:55;;;;;;;5.8;2.1;;;;;;;;;;;;;
2020/07/08 02:35:21;;;;;;;6.1;2.3;;;;;;;;;;;;;
2020/07/08 02:37:47;;;;;;;6.1;2.1;;;;;;;;;;;;;
2020/07/08 02:40:12;;;;;;;8.3;2.9;;;;;;;;;;;;;
2020/07/08 02:42:38;;;;;;;6.4;2.3;;;;;;;;;;;;;
2020/07/08 02:45:03;;;;;;;4.7;2;;;;;;;;;;;;;
2020/07/08 02:47:30;;;;;;;9.2;2.8;;;;;;;;;;;;;
2020/07/08 02:49:55;;;;;;;6.2;2.1;;;;;;;;;;;;;
2020/07/08 02:52:20;;;;;;;8.5;2.5;;;;;;;;;;;;;
2020/07/08 02:54:45;;;;;;;7.1;2.1;;;;;;;;;;;;;
2020/07/08 02:57:11;;;;;;;6;2.3;;;;;;;;;;;;;
2020/07/08 02:59:36;;;;;;;5.6;2.2;;;;;;;;;;;;;
2020/07/08 03:02:03;;;;;;;5.8;2.3;;;;;;;;;;;;;
2020/07/08 03:04:28;;;;;;;5.1;2.2;;;;;;;;;;;;;
2020/07/08 03:06:53;;;;;;;6.7;2.2;;;;;;;;;;;;;
2020/07/08 03:09:19;;;;;;;5.4;2.1;;;;;;;;;;;;;
2020/07/08 03:11:44;;;;;;;6;2.4;;;;;;;;;;;;;
2020/07/08 03:14:09;;;;;;;5.8;2.4;;;;;;;;;;;;;
2020/07/08 03:16:34;;;;;;;7.9;2.5;;;;;;;;;;;;;
2020/07/08 03:19:00;;;;;;;5.4;2.4;;;;;;;;;;;;;
2020/07/08 03:21:25;;;;;;;8.4;2.5;;;;;;;;;;;;;
2020/07/08 03:23:51;;;;;;;6;2.1;;;;;;;;;;;;;
2020/07/08 03:26:17;;;;;;;7.2;2.4;;;;;;;;;;;;;
2020/07/08 03:28:42;;;;;;;5.4;2;;;;;;;;;;;;;
2020/07/08 03:31:07;;;;;;;7.4;2.3;;;;;;;;;;;;;
2020/07/08 03:33:33;;;;;;;6.4;2.4;;;;;;;;;;;;;
2020/07/08 03:35:59;;;;;;;8.5;2.6;;;;;;;;;;;;;
2020/07/08 03:38:23;;;;;;;7.9;2.7;;;;;;;;;;;;;
2020/07/08 03:40:49;;;;;;;9;2.5;;;;;;;;;;;;;
2020/07/08 03:43:14;;;;;;;8.2;2.6;;;;;;;;;;;;;
2020/07/08 03:45:39;;;;;;;6.7;2.5;;;;;;;;;;;;;
2020/07/08 03:48:04;;;;;;;8.1;2.6;;;;;;;;;;;;;
2020/07/08 03:50:29;;;;;;;7.7;3;;;;;;;;;;;;;
2020/07/08 03:52:55;;;;;;;8.4;2.7;;;;;;;;;;;;;
2020/07/08 03:55:21;;;;;;;6.5;2.4;;;;;;;;;;;;;
2020/07/08 03:57:46;;;;;;;6.3;2.5;;;;;;;;;;;;;
2020/07/08 04:02:30;;;;;;;8.4;2.7;;;;;;;11.55;82.61816;939.9128;;;;
2020/07/08 04:04:58;;;;;;;7.3;2.4;;;;;;;11.49;82.99316;939.9497;;;;
2020/07/08 04:07:27;;;;;;;13.8;2.9;;;;;;;11.49;82.89063;939.9514;;;;
2020/07/08 04:09:55;;;;;;;10.3;2.8;;;;;;;11.59;82.5791;940.0144;;;;
2020/07/08 04:12:20;;;;;;;11.8;2.8;;;;;;;11.78;82.12305;940.0588;;;;
2020/07/08 04:14:51;;;;;;;8;2.5;;;;;;;11.96;82.00781;940.0037;;;;
2020/07/08 04:17:12;;;;;;;9.4;2.8;;;;;;;11.97;81.18359;940.1178;;;;
2020/07/08 04:19:41;;;;;;;12.3;3.3;;;;;;;12.07;80.7334;940.0853;;;;
2020/07/08 04:22:06;;;;;;;11.6;3;;;;;;;12.09;80.46191;940.1357;;;;
2020/07/08 04:24:33;;;;;;;12;3.1;;;;;;;12.07;80.44727;940.1603;;;;
2020/07/08 04:26:58;;;;;;;9.5;3;;;;;;;12;80.61719;940.2058;;;;
2020/07/08 04:29:25;;;;;;;12.6;4;;;;;;;11.96;80.75977;940.2631;;;;
2020/07/08 04:31:51;;;;;;;13.1;3.3;;;;;;;12.05;80.35254;940.2623;;;;
2020/07/08 04:34:15;;;;;;;8.7;2.6;;;;;;;12.03;80.12012;940.2319;;;;
2020/07/08 04:36:45;;;;;;;7.5;2.5;;;;;;;12;80.52539;940.2417;;;;
2020/07/08 04:39:10;;;;;;;6.7;2.8;;;;;;;12.11;80.69434;940.1885;;;;
2020/07/08 04:41:36;;;;;;;6.9;2.7;;;;;;;12.01;80.36816;940.19;;;;
2020/07/08 04:44:02;;;;;;;8.7;2.5;;;;;;;12.04;80.48633;940.1713;;;;
2020/07/08 04:46:30;;;;;;;9.7;2.4;;;;;;;11.93;80.85742;940.2317;;;;
2020/07/08 04:48:56;;;;;;;8.9;2.6;;;;;;;11.84;81.27441;940.1281;;;;
2020/07/08 04:51:21;;;;;;;10.6;2.5;;;;;;;11.92;81.07129;940.1375;;;;
2020/07/08 04:53:45;;;;;;;8.4;2.8;;;;;;;11.93;80.85742;940.1543;;;;
2020/07/08 04:56:11;;;;;;;9.4;2.6;;;;;;;11.9;81.19629;940.1732;;;;
2020/07/08 04:58:37;;;;;;;11;2.8;;;;;;;11.98;81.16504;940.1347;;;;
2020/07/08 05:01:02;;;;;;;5;2.4;;;;;;;11.92;81.25684;940.1574;;;;
2020/07/08 05:03:30;;;;;;;12;3;;;;;;;11.89;81.82227;940.1453;;;;
2020/07/08 05:05:55;;;;;;;8.9;2.8;;;;;;;11.96;81.7793;940.1928;;;;
2020/07/08 05:08:20;;;;;;;8.5;2.7;;;;;;;12.06;82.31348;940.0956;;;;
2020/07/08 05:10:45;;;;;;;8.1;2.2;;;;;;;13.05;80.36523;940.1281;;;;
2020/07/08 05:13:12;;;;;;;8.5;1.9;;;;;;;14.59;74.62305;940.0809;;;;
2020/07/08 05:15:45;;;;;;;11.3;2.7;;;;;;;16;67.39551;940.157;;;;
2020/07/08 05:18:09;;;;;;;8.2;2;;;;;;;17.15;62.44727;939.9658;;;;
2020/07/08 05:20:38;;;;;;;6.4;1.8;;;;;;;17.93;59.63184;940.0461;;;;
2020/07/08 05:23:03;;;;;;;6.5;1.9;;;;;;;18.68;58.02441;940.0223;;;;
2020/07/08 05:25:29;;;;;;;7.3;1.8;;;;;;;19.79;55.63867;940.0677;;;;
2020/07/08 05:27:54;;;;;;;10.2;2.4;;;;;;;20.73;52.18066;939.9733;;;;
2020/07/08 05:30:28;;;;;;;8.6;1.7;;;;;;;21.37;50.71094;940.0043;;;;
2020/07/08 05:32:54;;;;;;;6.1;1.5;;;;;;;22.16;48.1875;940.0178;;;;
2020/07/08 05:35:19;;;;;;;6.4;1.6;;;;;;;22.6;48.10645;940.0442;;;;
2020/07/08 05:37:45;;;;;;;3.8;1.3;;;;;;;23.31;46.2793;940.0756;;;;
2020/07/08 05:40:10;;;;;;;5.9;1.6;;;;;;;23.6;44.54492;940.0751;;;;
2020/07/08 05:42:37;;;;;;;7.5;1.6;;;;;;;23.11;44.1084;940.0413;;;;
2020/07/08 05:45:02;;;;;;;4.9;1.5;;;;;;;23.16;43.85449;940.0817;;;;
2020/07/08 05:47:33;;;;;;;4.1;1.6;;;;;;;23.61;45.29785;940.0464;;;;
2020/07/08 05:49:58;;;;;;;5.8;1.5;;;;;;;24.29;41.66797;940.0521;;;;
2020/07/08 05:52:23;;;;;;;4.7;2;;;;;;;23.94;41.76563;940.0844;;;;
2020/07/08 05:54:48;;;;;;;6.7;1.5;;;;;;;24.12;43.53711;940.0197;;;;
2020/07/08 05:57:15;;;;;;;5;1.3;;;;;;;24.73;39.66992;939.9827;;;;
2020/07/08 05:59:40;;;;;;;6.1;1.6;;;;;;;25.32;38.77734;939.9067;;;;
2020/07/08 06:02:05;;;;;;;5.3;1.6;;;;;;;25.44;38.30371;939.842;;;;
2020/07/08 06:04:30;;;;;;;6.5;1.7;;;;;;;25.14;39.74121;939.9348;;;;
2020/07/08 06:06:55;;;;;;;4.1;1.4;;;;;;;25.71;38.33887;939.9549;;;;
2020/07/08 06:09:20;;;;;;;5.4;1.7;;;;;;;26.37;38.13477;939.9802;;;;
2020/07/08 06:11:48;;;;;;;5.1;1.5;;;;;;;26.55;37.0957;939.943;;;;
2020/07/08 06:14:13;;;;;;;6.4;1.7;;;;;;;26.39;35.72168;939.9335;;;;
2020/07/08 06:16:42;;;;;;;5.5;1.4;;;;;;;26.92;35.2666;939.8872;;;;
2020/07/08 06:19:10;;;;;;;3.9;1.4;;;;;;;26.28;36.46973;939.8862;;;;
2020/07/08 06:21:35;;;;;;;4.9;1.6;;;;;;;26.57;36.16211;939.8724;;;;
2020/07/08 06:24:00;;;;;;;8;2;;;;;;;26.72;37.27637;939.9102;;;;
2020/07/08 06:26:25;;;;;;;4.5;1.4;;;;;;;27.05;35.73828;939.8884;;;;
2020/07/08 06:28:50;;;;;;;4.2;1.4;;;;;;;27.16;37.67969;939.9156;;;;
2020/07/08 06:31:16;;;;;;;4.5;1.5;;;;;;;27.18;37.74023;939.9063;;;;
2020/07/08 06:33:41;;;;;;;4.7;1.5;;;;;;;28.48;33.90234;939.8681;;;;
2020/07/08 06:36:06;;;;;;;4.9;1.5;;;;;;;28.65;34.31934;939.8603;;;;
2020/07/08 06:38:32;;;;;;;5.6;1.5;;;;;;;29.39;33.39844;939.8019;;;;
2020/07/08 06:40:57;;;;;;;7.2;1.6;;;;;;;29.28;32.41406;939.8144;;;;
2020/07/08 06:43:24;;;;;;;4;1.4;;;;;;;29.05;35.87402;939.8417;;;;
2020/07/08 06:45:49;;;;;;;5.6;1.6;;;;;;;29.81;30.68652;939.7739;;;;
2020/07/08 06:48:20;;;;;;;4.5;1.2;;;;;;;30.38;30.5459;939.6649;;;;
2020/07/08 06:50:43;;;;;;;6.4;1.5;;;;;;;30.96;28.75586;939.7244;;;;
2020/07/08 06:53:09;;;;;;;5.8;1.3;;;;;;;29.97;33.19043;939.734;;;;
2020/07/08 06:55:34;;;;;;;3.5;1.5;;;;;;;30.15;33.0127;939.7442;;;;
2020/07/08 06:58:01;;;;;;;5.2;1.6;;;;;;;31.12;31.09863;939.6994;;;;
2020/07/08 07:00:28;;;;;;;4.1;1.3;;;;;;;30.69;28.28418;939.6514;;;;
2020/07/08 07:02:55;;;;;;;4.4;1.4;;;;;;;30.41;31.89746;939.6142;;;;
2020/07/08 07:05:20;;;;;;;4.3;1.4;;;;;;;30.48;28.79688;939.595;;;;
2020/07/08 07:07:45;;;;;;;3.8;1.3;;;;;;;29.28;32.16309;939.5975;;;;
2020/07/08 07:10:10;;;;;;;5.1;1.4;;;;;;;30.17;31.36816;939.6058;;;;
2020/07/08 07:12:36;;;;;;;5.5;1.5;;;;;;;31.39;28.25684;939.5414;;;;
2020/07/08 07:15:01;;;;;;;4.7;1.4;;;;;;;30.7;30.92676;939.5109;;;;
2020/07/08 07:17:26;;;;;;;5.9;1.6;;;;;;;30.71;31.77539;939.5255;;;;
2020/07/08 07:19:53;;;;;;;3.7;1.2;;;;;;;31.7;29.68945;939.5173;;;;
2020/07/08 07:22:18;;;;;;;4;1.4;;;;;;;32.22;26.57031;939.4958;;;;
2020/07/08 07:24:45;;;;;;;5.3;1.5;;;;;;;31.34;29.24707;939.4956;;;;
2020/07/08 07:27:11;;;;;;;5.6;1.4;;;;;;;33.24;25.67969;939.4404;;;;
2020/07/08 07:29:36;;;;;;;4.5;1.5;;;;;;;32.53;29.03613;939.3973;;;;
2020/07/08 07:32:01;;;;;;;4.8;1.3;;;;;;;32.48;27.26855;939.3741;;;;
2020/07/08 07:34:27;;;;;;;3.3;1.3;;;;;;;33.1;28.6875;939.3684;;;;
2020/07/08 07:36:52;;;;;;;2.9;1.3;;;;;;;33.69;27.42578;939.3698;;;;
2020/07/08 07:39:17;;;;;;;5.1;1.6;;;;;;;32.46;30.21973;939.4088;;;;
2020/07/08 07:41:42;;;;;;;3.6;1.2;;;;;;;32.32;28.29004;939.3667;;;;
2020/07/08 07:44:08;;;;;;;3.1;1.3;;;;;;;34.05;25.59375;939.3152;;;;
2020/07/08 07:46:35;;;;;;;5.6;1.5;;;;;;;35.18;23.84668;939.2828;;;;
2020/07/08 07:49:00;;;;;;;5.5;1.4;;;;;;;35.67;24.46387;939.3567;;;;
2020/07/08 07:51:26;;;;;;;5.6;1.2;;;;;;;34.43;26.3252;939.3298;;;;
2020/07/08 07:53:51;;;;;;;3.5;1.3;;;;;;;34.15;26.62207;939.3405;;;;
2020/07/08 07:56:17;;;;;;;3.3;1.3;;;;;;;34.75;27.41699;939.3209;;;;
2020/07/08 07:58:42;;;;;;;4.1;1.3;;;;;;;33.33;28.41406;939.2667;;;;
2020/07/08 08:01:07;;;;;;;3.4;1.3;;;;;;;32.83;25.62109;939.2026;;;;
2020/07/08 08:03:32;;;;;;;4.4;1.5;;;;;;;33.67;24.08008;939.1808;;;;
2020/07/08 08:05:57;;;;;;;4.3;1.2;;;;;;;32.99;28.10449;939.139;;;;
2020/07/08 08:08:22;;;;;;;5;1.4;;;;;;;33.2;29.12598;939.1669;;;;
2020/07/08 08:10:48;;;;;;;6.6;1.8;;;;;;;34.46;26.97852;939.1501;;;;
2020/07/08 08:13:15;;;;;;;5.3;1.4;;;;;;;32.82;29.78613;939.117;;;;
2020/07/08 08:15:40;;;;;;;5.1;1.3;;;;;;;33.58;28.16504;939.106;;;;
2020/07/08 08:18:05;;;;;;;5;1.3;;;;;;;33.8;27.34863;939.0954;;;;
2020/07/08 08:20:31;;;;;;;4.7;1.4;;;;;;;33.75;27.63379;939.0136;;;;
2020/07/08 08:22:56;;;;;;;3.7;1.4;;;;;;;34.44;27.96484;939.0211;;;;
2020/07/08 08:25:23;;;;;;;4.8;1.5;;;;;;;33.96;27.24902;939.0408;;;;
2020/07/08 08:27:48;;;;;;;3.4;1.2;;;;;;;34.73;24.48633;938.9998;;;;
2020/07/08 08:30:16;;;;;;;2.9;1.2;;;;;;;33.77;27.91113;939.0488;;;;
2020/07/08 08:32:41;;;;;;;4.5;1.2;;;;;;;35.14;26.1377;939.0286;;;;
2020/07/08 08:35:08;;;;;;;5.4;1.3;;;;;;;35.55;24.15527;939.0054;;;;
2020/07/08 08:37:33;;;;;;;6.9;1.3;;;;;;;35.5;25.6377;938.996;;;;
2020/07/08 08:39:58;;;;;;;3.6;1.2;;;;;;;35.88;24.99512;939.0402;;;;
2020/07/08 08:42:25;;;;;;;16.5;1.7;;;;;;;35.26;26.22949;938.9836;;;;
2020/07/08 08:44:51;;;;;;;5.1;1.9;;;;;;;35.56;25.25488;939.0276;;;;
2020/07/08 08:47:17;;;;;;;6.6;1.2;;;;;;;35.67;24.1748;939.0446;;;;
2020/07/08 08:49:42;;;;;;;6.8;1.4;;;;;;;35.7;26.70117;939.0889;;;;
2020/07/08 08:52:08;;;;;;;2.9;1.1;;;;;;;35.88;25.30957;939.0041;;;;
2020/07/08 08:54:33;;;;;;;3;1.1;;;;;;;35.11;26.55762;938.9606;;;;
2020/07/08 08:56:58;;;;;;;6;1.4;;;;;;;35.8;25.4502;938.9361;;;;
2020/07/08 08:59:25;;;;;;;6.4;1.6;;;;;;;35.27;27.12207;938.8937;;;;
2020/07/08 09:01:50;;;;;;;3.4;1.1;;;;;;;35.08;25.01172;938.8362;;;;
2020/07/08 09:04:16;;;;;;;4.7;1.5;;;;;;;34.14;30.00586;938.8736;;;;
2020/07/08 09:06:41;;;;;;;4.2;1.4;;;;;;;35.14;24.88184;938.8453;;;;
2020/07/08 09:09:06;;;;;;;8.7;1.5;;;;;;;35.09;27.77539;938.8608;;;;
2020/07/08 09:11:32;;;;;;;4.1;1.4;;;;;;;33.73;25.76758;938.8427;;;;
2020/07/08 09:13:57;;;;;;;4.8;1.2;;;;;;;34.36;28.62207;938.845;;;;
2020/07/08 09:16:22;;;;;;;4.8;1.3;;;;;;;34.55;26.88672;938.8143;;;;
2020/07/08 09:18:47;;;;;;;12.8;1.7;;;;;;;34.1;28.64258;938.8372;;;;
2020/07/08 09:21:13;;;;;;;3.6;1.4;;;;;;;33.85;28.6748;938.7883;;;;
2020/07/08 09:23:40;;;;;;;8;1.8;;;;;;;34.23;26.9043;938.7584;;;;
2020/07/08 09:26:05;;;;;;;4.1;1.3;;;;;;;33.96;27.25;938.756;;;;
2020/07/08 09:28:30;;;;;;;3.3;1.2;;;;;;;33.93;27.58496;938.7277;;;;
2020/07/08 09:30:55;;;;;;;4.3;1.2;;;;;;;33.29;28.98828;938.7324;;;;
2020/07/08 09:33:21;;;;;;;4.1;1.2;;;;;;;33.25;30.45215;938.6678;;;;
2020/07/08 09:35:47;;;;;;;4.1;1.4;;;;;;;33.26;28.72168;938.6534;;;;
2020/07/08 09:38:11;;;;;;;3.3;1.3;;;;;;;32.72;30.75195;938.6345;;;;
2020/07/08 09:40:39;;;;;;;4.8;1.4;;;;;;;32.25;31.25977;938.6482;;;;
2020/07/08 09:43:02;;;;;;;3.7;1.3;;;;;;;32.61;29.24414;938.5801;;;;
2020/07/08 09:45:30;;;;;;;8.3;1.7;;;;;;;32.55;29.66113;938.5652;;;;
2020/07/08 09:47:56;;;;;;;5.6;1.3;;;;;;;32.16;31.98535;938.6217;;;;
2020/07/08 09:50:21;;;;;;;6.7;1.7;;;;;;;31.24;31.68066;938.5488;;;;
2020/07/08 09:52:47;;;;;;;3.9;1.2;;;;;;;31.15;33.99512;938.5432;;;;
2020/07/08 09:55:12;;;;;;;4.9;1.3;;;;;;;31.16;33.81738;938.5661;;;;
2020/07/08 09:57:37;;;;;;;5.3;1.4;;;;;;;31.22;34.33594;938.5137;;;;
2020/07/08 10:00:04;;;;;;;3.7;1.3;;;;;;;31.21;34.33496;938.5506;;;;
2020/07/08 10:02:29;;;;;;;8.1;1.3;;;;;;;31.3;32.91699;938.5168;;;;
2020/07/08 10:04:54;;;;;;;3.7;1.3;;;;;;;31.09;33.00977;938.553;;;;
2020/07/08 10:07:19;;;;;;;6.5;1.4;;;;;;;30.57;35.30176;938.4697;;;;
2020/07/08 10:09:45;;;;;;;3.8;1.3;;;;;;;30.61;33.47656;938.457;;;;
2020/07/08 10:12:16;;;;;;;5.3;1.4;;;;;;;30.43;36.15137;938.4425;;;;
2020/07/08 10:14:38;;;;;;;3.9;1.3;;;;;;;30.03;36.07031;938.4531;;;;
2020/07/08 10:17:03;;;;;;;5.1;1.3;;;;;;;29.81;35.24316;938.4688;;;;
2020/07/08 10:19:28;;;;;;;5.2;1.6;;;;;;;29.68;35.375;938.3949;;;;
2020/07/08 10:21:53;;;;;;;5.8;1.5;;;;;;;29.28;37.39355;938.4621;;;;
2020/07/08 10:24:24;;;;;;;4.5;1.2;;;;;;;29.19;37.59961;938.4465;;;;
2020/07/08 10:26:50;;;;;;;4.8;1.5;;;;;;;28.88;38.35938;938.4022;;;;
2020/07/08 10:29:15;;;;;;;4.8;1.6;;;;;;;28.87;39.7041;938.4428;;;;
2020/07/08 10:31:42;;;;;;;4.5;1.5;;;;;;;28.96;38.02148;938.4716;;;;
2020/07/08 10:34:07;;;;;;;7.2;1.1;;;;;;;29.08;37.41211;938.3358;;;;
2020/07/08 10:36:32;;;;;;;3.9;1.4;;;;;;;28.59;39.16797;938.358;;;;
2020/07/08 10:38:58;;;;;;;3.8;1.3;;;;;;;28.72;38.22754;938.4286;;;;
2020/07/08 10:41:23;;;;;;;3.6;1.3;;;;;;;28.87;37.82324;938.3166;;;;
2020/07/08 10:43:48;;;;;;;5.7;1.5;;;;;;;29.12;38.62988;938.3214;;;;
2020/07/08 10:46:13;;;;;;;8;1.5;;;;;;;29.16;37.58496;938.3326;;;;
2020/07/08 10:48:38;;;;;;;3.5;1.3;;;;;;;29.21;39.25684;938.3219;;;;
2020/07/08 10:51:04;;;;;;;6.6;1.4;;;;;;;28.97;37.41504;938.3054;;;;
2020/07/08 10:53:29;;;;;;;6.9;1.6;;;;;;;28.84;39.82031;938.2709;;;;
2020/07/08 10:55:56;;;;;;;6.3;1.3;;;;;;;28.94;38.31738;938.3083;;;;
2020/07/08 10:58:21;;;;;;;4.4;1.2;;;;;;;29.1;37.85449;938.2332;;;;
2020/07/08 11:00:51;;;;;;;4.7;1.6;;;;;;;29.11;38.41504;938.1423;;;;
2020/07/08 11:03:17;;;;;;;4.8;1.3;;;;;;;29.13;39.40527;938.1633;;;;
2020/07/08 11:05:42;;;;;;;5.3;1.5;;;;;;;29.21;37.2334;938.1946;;;;
2020/07/08 11:08:16;;;;;;;5;1.4;;;;;;;29.31;37.2998;938.1503;;;;
2020/07/08 11:10:34;;;;;;;6;1.5;;;;;;;29.21;39.06641;938.1473;;;;
2020/07/08 11:13:00;;;;;;;3.8;1.2;;;;;;;29.22;37.4834;938.0787;;;;
2020/07/08 11:15:26;;;;;;;3.6;1.4;;;;;;;29.32;36.76563;938.0527;;;;
2020/07/08 11:17:54;;;;;;;4.4;1.4;;;;;;;29.43;39.22852;938.0527;;;;
2020/07/08 11:20:17;;;;;;;3.5;1.3;;;;;;;29.41;39.48926;938.0017;;;;
2020/07/08 11:22:45;;;;;;;4.1;1.3;;;;;;;29.46;37.34863;937.9606;;;;
2020/07/08 11:25:10;;;;;;;6.2;1.5;;;;;;;29.34;37.04102;937.9807;;;;
2020/07/08 11:27:36;;;;;;;3.6;1.2;;;;;;;29.5;36.41113;937.9669;;;;
2020/07/08 11:30:01;;;;;;;5.2;1.5;;;;;;;29.61;36.25293;937.9626;;;;
2020/07/08 11:32:28;;;;;;;4.5;1.5;;;;;;;29.47;37.03906;937.9325;;;;
2020/07/08 11:34:53;;;;;;;5.6;1.2;;;;;;;29.26;38.10645;937.9236;;;;
2020/07/08 11:37:17;;;;;;;3.9;1.5;;;;;;;29.39;36.94922;937.8702;;;;
2020/07/08 11:39:43;;;;;;;3.9;1.3;;;;;;;29.28;37;937.834;;;;
2020/07/08 11:42:10;;;;;;;3.7;1.3;;;;;;;29.41;37.43945;937.8422;;;;
2020/07/08 11:44:35;;;;;;;5.8;1.8;;;;;;;29.34;36.62305;937.8393;;;;
2020/07/08 11:47:01;;;;;;;5;1.4;;;;;;;29.34;35.28906;937.7639;;;;
2020/07/08 11:49:28;;;;;;;5.7;1.3;;;;;;;29.32;37.74219;937.8032;;;;
2020/07/08 11:51:53;;;;;;;5;1.4;;;;;;;29.23;39.06836;937.6965;;;;
2020/07/08 11:54:20;;;;;;;2.2;1.1;;;;;;;28.97;39.03418;937.7629;;;;
2020/07/08 11:56:45;;;;;;;11.2;1.7;;;;;;;28.98;39.59473;937.7203;;;;
2020/07/08 11:59:11;;;;;;;5.1;1.5;;;;;;;29.04;38.98145;937.7748;;;;
2020/07/08 12:01:36;;;;;;;4.5;1.4;;;;;;;29.21;37.1377;937.6663;;;;
2020/07/08 12:04:03;;;;;;;4.3;1.2;;;;;;;29.37;36.78125;937.6345;;;;
2020/07/08 12:06:28;;;;;;;4.4;1.5;;;;;;;29.32;39.18359;937.6581;;;;
2020/07/08 12:08:53;;;;;;;5;1.5;;;;;;;29.4;37.92773;937.6013;;;;
2020/07/08 12:11:18;;;;;;;4.9;1.4;;;;;;;29.72;37.5127;937.5684;;;;
2020/07/08 12:13:45;;;;;;;5.6;1.4;;;;;;;29.87;38.09766;937.5789;;;;
2020/07/08 12:16:10;;;;;;;4.9;1.5;;;;;;;29.74;36.28613;937.5691;;;;
2020/07/08 12:18:39;;;;;;;5.1;1.6;;;;;;;29.88;35.33203;937.5231;;;;
2020/07/08 12:21:05;;;;;;;7.8;1.5;;;;;;;30.12;37.11621;937.4954;;;;
2020/07/08 12:23:31;;;;;;;4.8;1.3;;;;;;;29.84;35.04199;937.5574;;;;
2020/07/08 12:25:56;;;;;;;5.8;1.2;;;;;;;29.83;36.85449;937.5199;;;;
2020/07/08 12:28:22;;;;;;;7.7;1.3;;;;;;;29.95;35.6709;937.5005;;;;
2020/07/08 12:30:49;;;;;;;6.5;1.4;;;;;;;30.22;38.02051;937.5476;;;;
2020/07/08 12:33:14;;;;;;;5.5;1.4;;;;;;;30.31;35.10156;937.579;;;;
2020/07/08 12:35:40;;;;;;;3.9;1.3;;;;;;;30.37;35.68066;937.5565;;;;
2020/07/08 12:38:05;;;;;;;3.6;1.2;;;;;;;30.46;34.4209;937.49;;;;
2020/07/08 12:40:30;;;;;;;5.4;1.2;;;;;;;30.39;34.10645;937.467;;;;
2020/07/08 12:42:55;;;;;;;3.8;1.3;;;;;;;30.59;35.62598;937.5048;;;;
2020/07/08 12:45:25;;;;;;;4.5;1.2;;;;;;;30.59;34.58691;937.4818;;;;
2020/07/08 12:47:50;;;;;;;5;1.3;;;;;;;30.35;36.13184;937.4383;;;;
2020/07/08 12:50:15;;;;;;;6.3;1.6;;;;;;;30.23;33.49609;937.4339;;;;
2020/07/08 12:52:40;;;;;;;6.3;1.4;;;;;;;30.3;34.21777;937.4366;;;;
2020/07/08 12:55:07;;;;;;;4.8;1.4;;;;;;;30.34;35.42676;937.4199;;;;
2020/07/08 12:57:32;;;;;;;6;1.7;;;;;;;30.48;36.02344;937.4344;;;;
2020/07/08 12:59:58;;;;;;;5.6;1.2;;;;;;;30.6;35.55469;937.4417;;;;
2020/07/08 13:02:24;;;;;;;4.6;1.3;;;;;;;30.63;36;937.5012;;;;
2020/07/08 13:04:49;;;;;;;6.4;1.5;;;;;;;30.65;33.54004;937.4534;;;;
2020/07/08 13:07:15;;;;;;;4.4;1.4;;;;;;;30.58;35.9834;937.4575;;;;
2020/07/08 13:09:41;;;;;;;4;1.3;;;;;;;30.35;34.97363;937.4547;;;;
2020/07/08 13:12:06;;;;;;;4.2;1.2;;;;;;;29.85;34.87598;937.4726;;;;
2020/07/08 13:14:32;;;;;;;3.8;1.1;;;;;;;29.96;35.27832;937.4335;;;;
2020/07/08 13:16:57;;;;;;;5.2;1.4;;;;;;;29.76;35.68066;937.4955;;;;
2020/07/08 13:19:22;;;;;;;5.9;1.4;;;;;;;29.72;35.74805;937.3917;;;;
2020/07/08 13:21:59;;;;;;;7.8;1.5;;;;;;;29.63;36.06348;937.4277;;;;
2020/07/08 13:24:13;;;;;;;5.4;1.4;;;;;;;29.64;35.53906;937.3929;;;;
2020/07/08 13:26:38;;;;;;;4.7;1.2;;;;;;;29.26;36.98633;937.4002;;;;
2020/07/08 13:29:05;;;;;;;3.5;1.3;;;;;;;29.27;35.23633;937.3497;;;;
2020/07/08 13:31:29;;;;;;;6.3;1.4;;;;;;;29.42;36.72559;937.4136;;;;
2020/07/08 13:33:56;;;;;;;4.4;1.2;;;;;;;29.53;36.18652;937.3527;;;;
2020/07/08 13:36:21;;;;;;;4.7;1.3;;;;;;;29.59;37.88379;937.332;;;;
2020/07/08 13:38:48;;;;;;;5.4;1.4;;;;;;;29.5;36.73242;937.3295;;;;
2020/07/08 13:41:13;;;;;;;3.5;1.1;;;;;;;29.35;37.24414;937.3825;;;;
2020/07/08 13:43:38;;;;;;;4.4;1.2;;;;;;;29.28;36.32129;937.3688;;;;
2020/07/08 13:46:04;;;;;;;5.8;1.3;;;;;;;29.27;36.70117;937.4111;;;;
2020/07/08 13:48:29;;;;;;;2.8;1.1;;;;;;;29.38;34.04102;937.367;;;;
2020/07/08 13:50:54;;;;;;;4.8;1.2;;;;;;;29.57;35.40137;937.377;;;;
2020/07/08 13:53:19;;;;;;;4.7;1.5;;;;;;;29.44;35.96484;937.3856;;;;
2020/07/08 13:55:45;;;;;;;5.2;1.3;;;;;;;29.11;35.52148;937.4006;;;;
2020/07/08 13:58:10;;;;;;;5.5;1.2;;;;;;;28.74;37.25391;937.4927;;;;
2020/07/08 14:00:38;;;;;;;4;1.3;;;;;;;28.84;35.20313;937.4673;;;;
2020/07/08 14:03:05;;;;;;;3.6;1.2;;;;;;;28.65;37.30469;937.4561;;;;
2020/07/08 14:05:30;;;;;;;3.1;1.2;;;;;;;28.62;36.95801;937.5446;;;;
2020/07/08 14:07:55;;;;;;;3.2;1.1;;;;;;;28.73;34.80176;937.5408;;;;
2020/07/08 14:10:20;;;;;;;4.7;1.1;;;;;;;28.34;37.55273;937.4769;;;;
2020/07/08 14:12:46;;;;;;;3.6;1.1;;;;;;;28.31;36.2793;937.4558;;;;
2020/07/08 14:15:19;;;;;;;4.4;1.2;;;;;;;28.36;36.53223;937.548;;;;
2020/07/08 14:17:44;;;;;;;3.6;1.2;;;;;;;28.44;36.5625;937.4796;;;;
2020/07/08 14:20:09;;;;;;;3.9;1.1;;;;;;;28.43;35.51465;937.5273;;;;
2020/07/08 14:22:34;;;;;;;3.2;1.1;;;;;;;28.35;35.52051;937.4667;;;;
2020/07/08 14:24:59;;;;;;;5.4;1.5;;;;;;;28.25;35.78613;937.4963;;;;
2020/07/08 14:27:27;;;;;;;6.7;1.6;;;;;;;28.28;35.08789;937.5081;;;;
2020/07/08 14:29:52;;;;;;;2.9;0.9;;;;;;;28.15;33.62793;937.5172;;;;
2020/07/08 14:32:17;;;;;;;5;1.2;;;;;;;27.97;35.08691;937.5556;;;;
2020/07/08 14:34:43;;;;;;;6.4;1.1;;;;;;;27.8;34.58789;937.5424;;;;
2020/07/08 14:37:08;;;;;;;5.4;1;;;;;;;27.9;34.47559;937.5485;;;;
2020/07/08 14:39:37;;;;;;;7.3;1.1;;;;;;;27.91;35.56934;937.5363;;;;
2020/07/08 14:42:02;;;;;;;5.6;1.1;;;;;;;27.96;35.64355;937.476;;;;
2020/07/08 14:44:27;;;;;;;2.8;1;;;;;;;27.87;33.74902;937.5453;;;;
2020/07/08 14:46:53;;;;;;;10.7;1.4;;;;;;;27.87;34.85352;937.6;;;;
2020/07/08 14:49:19;;;;;;;3.7;0.9;;;;;;;27.54;30.56738;937.633;;;;
2020/07/08 14:51:44;;;;;;;2.1;0.7;;;;;;;27.41;31.54395;937.5804;;;;
2020/07/08 14:54:11;;;;;;;5.2;1.2;;;;;;;27.54;31.43359;937.6252;;;;
2020/07/08 14:56:36;;;;;;;2.9;1;;;;;;;27.66;31.59668;937.6275;;;;
2020/07/08 14:59:03;;;;;;;4.5;1;;;;;;;27.64;31.65527;937.6458;;;;
2020/07/08 15:01:28;;;;;;;4.8;1;;;;;;;27.68;33.34375;937.6794;;;;
2020/07/08 15:03:53;;;;;;;6.5;1.1;;;;;;;27.53;32.97559;937.6997;;;;
2020/07/08 15:06:19;;;;;;;5.2;1.2;;;;;;;27.36;31.12598;937.7548;;;;
2020/07/08 15:08:44;;;;;;;5.1;1.2;;;;;;;27.21;30.67676;937.8014;;;;
2020/07/08 15:11:13;;;;;;;2.6;1.2;;;;;;;26.77;29.92285;937.7921;;;;
2020/07/08 15:13:37;;;;;;;2.7;0.8;;;;;;;26.72;29.95605;937.7367;;;;
2020/07/08 15:16:03;;;;;;;2.5;0.9;;;;;;;26.77;31.13184;937.8092;;;;
2020/07/08 15:18:28;;;;;;;2.8;0.7;;;;;;;26.62;31.0625;937.835;;;;
2020/07/08 15:20:53;;;;;;;4.1;0.8;;;;;;;26.68;30.39063;937.8278;;;;
2020/07/08 15:23:19;;;;;;;6.6;1.1;;;;;;;26.37;30.98633;937.8176;;;;
2020/07/08 15:25:45;;;;;;;5;1;;;;;;;26.36;32.38086;937.8912;;;;
2020/07/08 15:28:11;;;;;;;3.6;0.8;;;;;;;26.28;32.61133;937.8452;;;;
2020/07/08 15:30:37;;;;;;;3.9;1.1;;;;;;;26.27;33.57031;937.9075;;;;